sensor_id;sensor_type;location;lat;lon;timestamp;P1;durP1;ratioP1;P2;durP2;ratioP2
61108;SDS011;46995;55.740;37.402;2022-11-06T00:00:39;23.00;;;14.60;;
61108;SDS011;46995;55.740;37.402;2022-11-06T00:03:05;26.48;;;15.13;;
61108;SDS011;46995;55.740;37.402;2022-11-06T00:05:32;24.23;;;15.48;;
61108;SDS011;46995;55.740;37.402;2022-11-06T00:08:24;24.92;;;15.80;;
61108;SDS011;46995;55.740;37.402;2022-11-06T00:10:52;20.75;;;14.02;;
61108;SDS011;46995;55.740;37.402;2022-11-06T00:13:18;23.00;;;14.50;;
61108;SDS011;46995;55.740;37.402;2022-11-06T00:15:44;22.77;;;15.05;;
61108;SDS011;46995;55.740;37.402;2022-11-06T00:18:09;21.92;;;14.73;;
61108;SDS011;46995;55.740;37.402;2022-11-06T00:20:35;21.92;;;14.50;;
61108;SDS011;46995;55.740;37.402;2022-11-06T00:23:01;23.17;;;14.70;;
61108;SDS011;46995;55.740;37.402;2022-11-06T00:25:27;24.95;;;15.57;;
61108;SDS011;46995;55.740;37.402;2022-11-06T00:27:52;22.75;;;14.35;;
61108;SDS011;46995;55.740;37.402;2022-11-06T00:30:18;26.45;;;14.63;;
61108;SDS011;46995;55.740;37.402;2022-11-06T00:32:45;23.77;;;15.00;;
61108;SDS011;46995;55.740;37.402;2022-11-06T00:35:12;23.00;;;15.65;;
61108;SDS011;46995;55.740;37.402;2022-11-06T00:37:38;20.88;;;13.77;;
61108;SDS011;46995;55.740;37.402;2022-11-06T00:40:04;21.63;;;14.07;;
61108;SDS011;46995;55.740;37.402;2022-11-06T00:42:30;21.88;;;13.50;;
61108;SDS011;46995;55.740;37.402;2022-11-06T00:44:55;22.48;;;14.18;;
61108;SDS011;46995;55.740;37.402;2022-11-06T00:47:21;23.42;;;14.27;;
61108;SDS011;46995;55.740;37.402;2022-11-06T00:49:47;19.50;;;12.43;;
61108;SDS011;46995;55.740;37.402;2022-11-06T00:52:13;19.75;;;14.30;;
61108;SDS011;46995;55.740;37.402;2022-11-06T00:54:39;20.80;;;13.68;;
61108;SDS011;46995;55.740;37.402;2022-11-06T00:57:04;20.30;;;13.00;;
61108;SDS011;46995;55.740;37.402;2022-11-06T00:59:31;20.15;;;13.32;;
61108;SDS011;46995;55.740;37.402;2022-11-06T01:01:57;20.02;;;13.15;;
61108;SDS011;46995;55.740;37.402;2022-11-06T01:04:23;20.55;;;13.48;;
61108;SDS011;46995;55.740;37.402;2022-11-06T01:06:52;21.77;;;14.13;;
61108;SDS011;46995;55.740;37.402;2022-11-06T01:09:22;21.42;;;13.43;;
61108;SDS011;46995;55.740;37.402;2022-11-06T01:11:51;19.83;;;13.65;;
61108;SDS011;46995;55.740;37.402;2022-11-06T01:14:19;18.95;;;12.55;;
61108;SDS011;46995;55.740;37.402;2022-11-06T01:19:13;20.70;;;12.30;;
61108;SDS011;46995;55.740;37.402;2022-11-06T01:21:41;18.35;;;10.75;;
61108;SDS011;46995;55.740;37.402;2022-11-06T01:24:12;18.05;;;11.15;;
61108;SDS011;46995;55.740;37.402;2022-11-06T01:26:39;17.92;;;12.13;;
61108;SDS011;46995;55.740;37.402;2022-11-06T01:29:06;17.60;;;11.40;;
61108;SDS011;46995;55.740;37.402;2022-11-06T01:31:35;16.73;;;10.93;;
61108;SDS011;46995;55.740;37.402;2022-11-06T01:34:02;21.92;;;12.05;;
61108;SDS011;46995;55.740;37.402;2022-11-06T01:36:29;26.33;;;13.77;;
61108;SDS011;46995;55.740;37.402;2022-11-06T01:38:56;15.80;;;10.55;;
61108;SDS011;46995;55.740;37.402;2022-11-06T01:41:25;15.60;;;11.02;;
61108;SDS011;46995;55.740;37.402;2022-11-06T01:47:01;14.23;;;9.85;;
61108;SDS011;46995;55.740;37.402;2022-11-06T01:49:42;16.35;;;10.18;;
61108;SDS011;46995;55.740;37.402;2022-11-06T01:52:10;15.93;;;10.27;;
61108;SDS011;46995;55.740;37.402;2022-11-06T01:54:37;14.98;;;10.20;;
61108;SDS011;46995;55.740;37.402;2022-11-06T01:57:06;14.98;;;10.00;;
61108;SDS011;46995;55.740;37.402;2022-11-06T01:59:34;16.38;;;10.07;;
61108;SDS011;46995;55.740;37.402;2022-11-06T02:02:03;15.98;;;9.70;;
61108;SDS011;46995;55.740;37.402;2022-11-06T02:04:48;14.98;;;9.70;;
61108;SDS011;46995;55.740;37.402;2022-11-06T02:07:14;17.35;;;10.80;;
61108;SDS011;46995;55.740;37.402;2022-11-06T02:09:42;17.73;;;10.18;;
61108;SDS011;46995;55.740;37.402;2022-11-06T02:29:14;18.35;;;11.63;;
61108;SDS011;46995;55.740;37.402;2022-11-06T02:31:44;19.88;;;12.63;;
61108;SDS011;46995;55.740;37.402;2022-11-06T02:34:13;20.95;;;12.25;;
61108;SDS011;46995;55.740;37.402;2022-11-06T02:36:45;18.85;;;12.00;;
61108;SDS011;46995;55.740;37.402;2022-11-06T02:39:18;24.30;;;13.23;;
61108;SDS011;46995;55.740;37.402;2022-11-06T02:41:47;20.75;;;11.73;;
61108;SDS011;46995;55.740;37.402;2022-11-06T02:44:17;22.13;;;12.68;;
61108;SDS011;46995;55.740;37.402;2022-11-06T02:46:57;24.33;;;13.00;;
61108;SDS011;46995;55.740;37.402;2022-11-06T02:49:41;25.65;;;13.48;;
61108;SDS011;46995;55.740;37.402;2022-11-06T02:52:13;20.65;;;13.77;;
61108;SDS011;46995;55.740;37.402;2022-11-06T02:54:46;21.10;;;12.85;;
61108;SDS011;46995;55.740;37.402;2022-11-06T02:57:17;20.73;;;12.85;;
61108;SDS011;46995;55.740;37.402;2022-11-06T02:59:49;20.65;;;12.00;;
61108;SDS011;46995;55.740;37.402;2022-11-06T03:02:30;20.90;;;12.32;;
61108;SDS011;46995;55.740;37.402;2022-11-06T03:05:07;19.30;;;12.00;;
61108;SDS011;46995;55.740;37.402;2022-11-06T03:07:39;19.80;;;12.57;;
61108;SDS011;46995;55.740;37.402;2022-11-06T03:10:06;20.85;;;12.77;;
61108;SDS011;46995;55.740;37.402;2022-11-06T03:23:02;19.67;;;11.32;;
61108;SDS011;46995;55.740;37.402;2022-11-06T03:25:34;18.98;;;11.48;;
61108;SDS011;46995;55.740;37.402;2022-11-06T03:28:48;18.48;;;10.95;;
61108;SDS011;46995;55.740;37.402;2022-11-06T03:31:18;14.32;;;9.90;;
61108;SDS011;46995;55.740;37.402;2022-11-06T03:33:56;17.63;;;10.70;;
61108;SDS011;46995;55.740;37.402;2022-11-06T03:36:30;15.35;;;9.82;;
61108;SDS011;46995;55.740;37.402;2022-11-06T03:44:18;17.75;;;9.45;;
61108;SDS011;46995;55.740;37.402;2022-11-06T03:46:57;17.30;;;10.07;;
61108;SDS011;46995;55.740;37.402;2022-11-06T03:49:31;13.52;;;9.93;;
61108;SDS011;46995;55.740;37.402;2022-11-06T03:52:27;14.38;;;10.55;;
61108;SDS011;46995;55.740;37.402;2022-11-06T03:55:14;16.45;;;10.68;;
61108;SDS011;46995;55.740;37.402;2022-11-06T03:57:49;24.42;;;11.13;;
61108;SDS011;46995;55.740;37.402;2022-11-06T04:00:19;17.15;;;10.80;;
61108;SDS011;46995;55.740;37.402;2022-11-06T04:02:47;15.88;;;10.02;;
61108;SDS011;46995;55.740;37.402;2022-11-06T04:05:20;17.13;;;10.20;;
61108;SDS011;46995;55.740;37.402;2022-11-06T04:07:50;17.95;;;11.40;;
61108;SDS011;46995;55.740;37.402;2022-11-06T04:10:37;17.63;;;11.15;;
61108;SDS011;46995;55.740;37.402;2022-11-06T04:13:26;20.38;;;13.07;;
61108;SDS011;46995;55.740;37.402;2022-11-06T04:16:15;23.75;;;12.50;;
61108;SDS011;46995;55.740;37.402;2022-11-06T04:18:42;19.88;;;10.95;;
61108;SDS011;46995;55.740;37.402;2022-11-06T04:21:16;17.73;;;11.70;;
61108;SDS011;46995;55.740;37.402;2022-11-06T04:26:51;17.25;;;10.75;;
61108;SDS011;46995;55.740;37.402;2022-11-06T04:37:24;18.80;;;12.18;;
61108;SDS011;46995;55.740;37.402;2022-11-06T04:39:59;18.98;;;12.30;;
61108;SDS011;46995;55.740;37.402;2022-11-06T04:42:48;20.13;;;11.50;;
61108;SDS011;46995;55.740;37.402;2022-11-06T04:45:23;16.65;;;10.60;;
61108;SDS011;46995;55.740;37.402;2022-11-06T04:47:54;21.23;;;11.30;;
61108;SDS011;46995;55.740;37.402;2022-11-06T04:50:21;19.35;;;11.68;;
61108;SDS011;46995;55.740;37.402;2022-11-06T04:52:49;18.92;;;11.57;;
61108;SDS011;46995;55.740;37.402;2022-11-06T04:55:16;19.42;;;12.20;;
61108;SDS011;46995;55.740;37.402;2022-11-06T04:57:42;16.88;;;11.10;;
61108;SDS011;46995;55.740;37.402;2022-11-06T05:00:11;18.98;;;11.52;;
61108;SDS011;46995;55.740;37.402;2022-11-06T05:02:38;20.02;;;12.38;;
61108;SDS011;46995;55.740;37.402;2022-11-06T05:05:04;19.75;;;11.95;;
61108;SDS011;46995;55.740;37.402;2022-11-06T05:07:30;20.10;;;12.63;;
61108;SDS011;46995;55.740;37.402;2022-11-06T05:09:57;22.85;;;12.88;;
61108;SDS011;46995;55.740;37.402;2022-11-06T05:12:23;20.10;;;11.63;;
61108;SDS011;46995;55.740;37.402;2022-11-06T05:14:48;18.60;;;11.80;;
61108;SDS011;46995;55.740;37.402;2022-11-06T05:17:14;22.55;;;12.32;;
61108;SDS011;46995;55.740;37.402;2022-11-06T05:19:40;22.58;;;12.95;;
61108;SDS011;46995;55.740;37.402;2022-11-06T05:22:06;21.45;;;11.65;;
61108;SDS011;46995;55.740;37.402;2022-11-06T05:24:51;25.92;;;12.23;;
61108;SDS011;46995;55.740;37.402;2022-11-06T05:27:17;19.75;;;11.95;;
61108;SDS011;46995;55.740;37.402;2022-11-06T05:29:42;20.25;;;12.40;;
61108;SDS011;46995;55.740;37.402;2022-11-06T05:32:09;26.15;;;14.02;;
61108;SDS011;46995;55.740;37.402;2022-11-06T05:34:35;20.92;;;13.63;;
61108;SDS011;46995;55.740;37.402;2022-11-06T05:37:00;22.92;;;13.95;;
61108;SDS011;46995;55.740;37.402;2022-11-06T05:39:26;28.27;;;14.48;;
61108;SDS011;46995;55.740;37.402;2022-11-06T05:41:52;22.30;;;13.77;;
61108;SDS011;46995;55.740;37.402;2022-11-06T05:44:18;25.80;;;15.18;;
61108;SDS011;46995;55.740;37.402;2022-11-06T05:46:44;28.20;;;15.55;;
61108;SDS011;46995;55.740;37.402;2022-11-06T05:49:10;28.03;;;14.43;;
61108;SDS011;46995;55.740;37.402;2022-11-06T05:51:36;25.15;;;14.27;;
61108;SDS011;46995;55.740;37.402;2022-11-06T05:54:02;28.25;;;16.05;;
61108;SDS011;46995;55.740;37.402;2022-11-06T05:56:28;26.52;;;15.20;;
61108;SDS011;46995;55.740;37.402;2022-11-06T05:58:54;24.88;;;15.02;;
61108;SDS011;46995;55.740;37.402;2022-11-06T06:01:19;29.23;;;15.60;;
61108;SDS011;46995;55.740;37.402;2022-11-06T06:03:45;36.13;;;15.95;;
61108;SDS011;46995;55.740;37.402;2022-11-06T06:06:11;30.02;;;16.50;;
61108;SDS011;46995;55.740;37.402;2022-11-06T06:08:36;30.35;;;16.33;;
61108;SDS011;46995;55.740;37.402;2022-11-06T06:11:04;29.30;;;16.67;;
61108;SDS011;46995;55.740;37.402;2022-11-06T06:13:34;32.05;;;16.92;;
61108;SDS011;46995;55.740;37.402;2022-11-06T06:16:01;27.40;;;16.95;;
61108;SDS011;46995;55.740;37.402;2022-11-06T06:18:28;24.83;;;15.05;;
61108;SDS011;46995;55.740;37.402;2022-11-06T06:20:55;27.38;;;15.60;;
61108;SDS011;46995;55.740;37.402;2022-11-06T06:23:22;27.00;;;16.08;;
61108;SDS011;46995;55.740;37.402;2022-11-06T06:25:48;28.50;;;16.02;;
61108;SDS011;46995;55.740;37.402;2022-11-06T06:28:14;26.05;;;14.98;;
61108;SDS011;46995;55.740;37.402;2022-11-06T06:30:41;26.60;;;15.77;;
61108;SDS011;46995;55.740;37.402;2022-11-06T06:33:06;26.55;;;15.25;;
61108;SDS011;46995;55.740;37.402;2022-11-06T06:35:32;26.42;;;16.08;;
61108;SDS011;46995;55.740;37.402;2022-11-06T06:37:58;26.27;;;15.67;;
61108;SDS011;46995;55.740;37.402;2022-11-06T06:40:24;26.60;;;15.23;;
61108;SDS011;46995;55.740;37.402;2022-11-06T06:42:54;29.33;;;16.13;;
61108;SDS011;46995;55.740;37.402;2022-11-06T06:45:20;24.90;;;15.15;;
61108;SDS011;46995;55.740;37.402;2022-11-06T06:47:46;26.67;;;13.98;;
61108;SDS011;46995;55.740;37.402;2022-11-06T06:50:11;29.83;;;16.90;;
61108;SDS011;46995;55.740;37.402;2022-11-06T06:52:38;24.10;;;14.32;;
61108;SDS011;46995;55.740;37.402;2022-11-06T06:55:04;36.38;;;20.65;;
61108;SDS011;46995;55.740;37.402;2022-11-06T06:57:30;23.52;;;14.77;;
61108;SDS011;46995;55.740;37.402;2022-11-06T06:59:56;26.13;;;14.00;;
61108;SDS011;46995;55.740;37.402;2022-11-06T07:02:22;28.75;;;14.55;;
61108;SDS011;46995;55.740;37.402;2022-11-06T07:04:47;26.05;;;14.40;;
61108;SDS011;46995;55.740;37.402;2022-11-06T07:07:13;26.65;;;13.60;;
61108;SDS011;46995;55.740;37.402;2022-11-06T07:09:39;21.83;;;12.82;;
61108;SDS011;46995;55.740;37.402;2022-11-06T07:12:05;21.70;;;13.32;;
61108;SDS011;46995;55.740;37.402;2022-11-06T07:14:31;28.42;;;14.02;;
61108;SDS011;46995;55.740;37.402;2022-11-06T07:16:56;23.38;;;13.65;;
61108;SDS011;46995;55.740;37.402;2022-11-06T07:19:22;32.38;;;14.60;;
61108;SDS011;46995;55.740;37.402;2022-11-06T07:21:51;25.63;;;13.98;;
61108;SDS011;46995;55.740;37.402;2022-11-06T07:24:17;26.52;;;12.70;;
61108;SDS011;46995;55.740;37.402;2022-11-06T07:26:43;24.27;;;14.02;;
61108;SDS011;46995;55.740;37.402;2022-11-06T07:29:09;20.17;;;13.30;;
61108;SDS011;46995;55.740;37.402;2022-11-06T07:31:34;21.75;;;14.55;;
61108;SDS011;46995;55.740;37.402;2022-11-06T07:34:02;32.80;;;18.27;;
61108;SDS011;46995;55.740;37.402;2022-11-06T07:36:28;25.83;;;14.27;;
61108;SDS011;46995;55.740;37.402;2022-11-06T07:38:56;25.00;;;13.60;;
61108;SDS011;46995;55.740;37.402;2022-11-06T07:41:22;16.65;;;11.52;;
61108;SDS011;46995;55.740;37.402;2022-11-06T07:43:48;16.67;;;10.82;;
61108;SDS011;46995;55.740;37.402;2022-11-06T07:46:15;20.17;;;12.32;;
61108;SDS011;46995;55.740;37.402;2022-11-06T07:48:47;23.83;;;12.27;;
61108;SDS011;46995;55.740;37.402;2022-11-06T07:51:34;26.15;;;11.05;;
61108;SDS011;46995;55.740;37.402;2022-11-06T07:54:01;17.55;;;10.65;;
61108;SDS011;46995;55.740;37.402;2022-11-06T07:56:27;17.98;;;11.38;;
61108;SDS011;46995;55.740;37.402;2022-11-06T07:58:53;19.75;;;11.43;;
61108;SDS011;46995;55.740;37.402;2022-11-06T08:01:18;26.13;;;14.93;;
61108;SDS011;46995;55.740;37.402;2022-11-06T08:03:44;21.45;;;11.82;;
61108;SDS011;46995;55.740;37.402;2022-11-06T08:06:10;19.48;;;11.73;;
61108;SDS011;46995;55.740;37.402;2022-11-06T08:08:36;21.95;;;12.10;;
61108;SDS011;46995;55.740;37.402;2022-11-06T08:11:03;21.95;;;12.60;;
61108;SDS011;46995;55.740;37.402;2022-11-06T08:13:29;22.75;;;13.18;;
61108;SDS011;46995;55.740;37.402;2022-11-06T08:15:58;18.92;;;12.32;;
61108;SDS011;46995;55.740;37.402;2022-11-06T08:18:27;23.38;;;12.68;;
61108;SDS011;46995;55.740;37.402;2022-11-06T08:20:53;20.42;;;12.52;;
61108;SDS011;46995;55.740;37.402;2022-11-06T08:23:18;22.15;;;11.32;;
61108;SDS011;46995;55.740;37.402;2022-11-06T08:25:44;22.70;;;13.15;;
61108;SDS011;46995;55.740;37.402;2022-11-06T08:28:10;20.35;;;13.25;;
61108;SDS011;46995;55.740;37.402;2022-11-06T08:30:37;22.60;;;13.05;;
61108;SDS011;46995;55.740;37.402;2022-11-06T08:33:04;19.20;;;12.23;;
61108;SDS011;46995;55.740;37.402;2022-11-06T08:35:35;19.85;;;12.70;;
61108;SDS011;46995;55.740;37.402;2022-11-06T08:38:02;27.05;;;14.75;;
61108;SDS011;46995;55.740;37.402;2022-11-06T08:40:28;22.77;;;13.55;;
61108;SDS011;46995;55.740;37.402;2022-11-06T08:43:00;20.92;;;13.30;;
61108;SDS011;46995;55.740;37.402;2022-11-06T08:45:27;24.70;;;13.95;;
61108;SDS011;46995;55.740;37.402;2022-11-06T08:47:53;27.02;;;15.20;;
61108;SDS011;46995;55.740;37.402;2022-11-06T08:50:19;26.73;;;15.25;;
61108;SDS011;46995;55.740;37.402;2022-11-06T08:52:45;22.05;;;14.48;;
61108;SDS011;46995;55.740;37.402;2022-11-06T08:55:11;29.27;;;15.43;;
61108;SDS011;46995;55.740;37.402;2022-11-06T08:57:37;25.63;;;15.13;;
61108;SDS011;46995;55.740;37.402;2022-11-06T09:00:03;25.67;;;14.98;;
61108;SDS011;46995;55.740;37.402;2022-11-06T09:02:29;27.55;;;14.75;;
61108;SDS011;46995;55.740;37.402;2022-11-06T09:04:56;29.45;;;15.40;;
61108;SDS011;46995;55.740;37.402;2022-11-06T09:07:23;27.17;;;14.32;;
61108;SDS011;46995;55.740;37.402;2022-11-06T09:09:48;26.35;;;15.88;;
61108;SDS011;46995;55.740;37.402;2022-11-06T09:12:14;25.48;;;15.10;;
61108;SDS011;46995;55.740;37.402;2022-11-06T09:14:40;25.88;;;14.93;;
61108;SDS011;46995;55.740;37.402;2022-11-06T09:17:05;25.13;;;15.45;;
61108;SDS011;46995;55.740;37.402;2022-11-06T09:19:31;24.33;;;14.23;;
61108;SDS011;46995;55.740;37.402;2022-11-06T09:21:57;30.10;;;14.27;;
61108;SDS011;46995;55.740;37.402;2022-11-06T09:24:23;21.63;;;14.55;;
61108;SDS011;46995;55.740;37.402;2022-11-06T09:26:48;22.85;;;13.82;;
61108;SDS011;46995;55.740;37.402;2022-11-06T09:29:16;24.17;;;14.98;;
61108;SDS011;46995;55.740;37.402;2022-11-06T09:31:41;25.40;;;14.95;;
61108;SDS011;46995;55.740;37.402;2022-11-06T09:34:08;24.33;;;14.20;;
61108;SDS011;46995;55.740;37.402;2022-11-06T09:36:34;22.77;;;14.90;;
61108;SDS011;46995;55.740;37.402;2022-11-06T09:39:00;22.53;;;14.27;;
61108;SDS011;46995;55.740;37.402;2022-11-06T09:44:12;26.45;;;15.02;;
61108;SDS011;46995;55.740;37.402;2022-11-06T09:46:45;23.35;;;14.02;;
61108;SDS011;46995;55.740;37.402;2022-11-06T09:49:17;30.55;;;15.68;;
61108;SDS011;46995;55.740;37.402;2022-11-06T09:52:41;28.15;;;15.40;;
61108;SDS011;46995;55.740;37.402;2022-11-06T09:55:00;26.30;;;15.30;;
61108;SDS011;46995;55.740;37.402;2022-11-06T10:00:07;27.77;;;15.52;;
61108;SDS011;46995;55.740;37.402;2022-11-06T10:05:30;26.02;;;14.85;;
61108;SDS011;46995;55.740;37.402;2022-11-06T10:07:58;27.60;;;15.05;;
61108;SDS011;46995;55.740;37.402;2022-11-06T10:10:30;24.30;;;13.95;;
61108;SDS011;46995;55.740;37.402;2022-11-06T10:21:52;24.33;;;14.75;;
61108;SDS011;46995;55.740;37.402;2022-11-06T10:27:26;21.77;;;12.95;;
61108;SDS011;46995;55.740;37.402;2022-11-06T10:35:18;22.63;;;14.00;;
61108;SDS011;46995;55.740;37.402;2022-11-06T10:38:05;23.55;;;13.57;;
61108;SDS011;46995;55.740;37.402;2022-11-06T10:40:32;26.85;;;12.98;;
61108;SDS011;46995;55.740;37.402;2022-11-06T10:45:33;22.23;;;12.48;;
61108;SDS011;46995;55.740;37.402;2022-11-06T10:48:11;20.35;;;12.95;;
61108;SDS011;46995;55.740;37.402;2022-11-06T10:50:57;21.70;;;13.23;;
61108;SDS011;46995;55.740;37.402;2022-11-06T10:53:34;20.83;;;12.95;;
61108;SDS011;46995;55.740;37.402;2022-11-06T10:59:07;25.48;;;11.98;;
61108;SDS011;46995;55.740;37.402;2022-11-06T11:01:33;20.55;;;12.50;;
61108;SDS011;46995;55.740;37.402;2022-11-06T11:03:59;20.25;;;12.52;;
61108;SDS011;46995;55.740;37.402;2022-11-06T11:06:25;21.95;;;13.23;;
61108;SDS011;46995;55.740;37.402;2022-11-06T11:08:51;20.73;;;12.50;;
61108;SDS011;46995;55.740;37.402;2022-11-06T11:11:21;16.95;;;11.57;;
61108;SDS011;46995;55.740;37.402;2022-11-06T11:16:21;21.08;;;13.13;;
61108;SDS011;46995;55.740;37.402;2022-11-06T11:18:49;19.45;;;12.27;;
61108;SDS011;46995;55.740;37.402;2022-11-06T11:21:21;21.73;;;13.65;;
61108;SDS011;46995;55.740;37.402;2022-11-06T11:24:08;22.70;;;13.00;;
61108;SDS011;46995;55.740;37.402;2022-11-06T11:26:41;18.58;;;12.43;;
61108;SDS011;46995;55.740;37.402;2022-11-06T11:29:14;23.27;;;13.07;;
61108;SDS011;46995;55.740;37.402;2022-11-06T11:31:46;23.70;;;12.93;;
61108;SDS011;46995;55.740;37.402;2022-11-06T11:34:20;18.95;;;12.55;;
61108;SDS011;46995;55.740;37.402;2022-11-06T11:36:56;18.77;;;12.40;;
61108;SDS011;46995;55.740;37.402;2022-11-06T11:39:31;18.52;;;11.82;;
61108;SDS011;46995;55.740;37.402;2022-11-06T11:42:32;20.48;;;11.80;;
61108;SDS011;46995;55.740;37.402;2022-11-06T11:47:35;18.25;;;11.73;;
61108;SDS011;46995;55.740;37.402;2022-11-06T11:50:43;22.92;;;13.02;;
61108;SDS011;46995;55.740;37.402;2022-11-06T11:52:55;19.35;;;12.18;;
61108;SDS011;46995;55.740;37.402;2022-11-06T11:55:24;19.58;;;12.73;;
61108;SDS011;46995;55.740;37.402;2022-11-06T11:57:53;21.00;;;12.38;;
61108;SDS011;46995;55.740;37.402;2022-11-06T12:00:22;21.00;;;12.13;;
61108;SDS011;46995;55.740;37.402;2022-11-06T12:02:49;19.93;;;12.63;;
61108;SDS011;46995;55.740;37.402;2022-11-06T12:07:52;21.13;;;12.18;;
61108;SDS011;46995;55.740;37.402;2022-11-06T12:10:25;26.27;;;12.68;;
61108;SDS011;46995;55.740;37.402;2022-11-06T12:13:15;18.55;;;12.23;;
61108;SDS011;46995;55.740;37.402;2022-11-06T12:15:46;21.93;;;14.07;;
61108;SDS011;46995;55.740;37.402;2022-11-06T12:18:33;18.45;;;12.60;;
61108;SDS011;46995;55.740;37.402;2022-11-06T12:21:16;20.17;;;11.57;;
61108;SDS011;46995;55.740;37.402;2022-11-06T12:23:50;23.63;;;13.85;;
61108;SDS011;46995;55.740;37.402;2022-11-06T12:28:55;25.52;;;14.48;;
61108;SDS011;46995;55.740;37.402;2022-11-06T12:34:00;21.80;;;12.93;;
61108;SDS011;46995;55.740;37.402;2022-11-06T12:36:31;20.30;;;11.57;;
61108;SDS011;46995;55.740;37.402;2022-11-06T12:39:05;18.25;;;11.65;;
61108;SDS011;46995;55.740;37.402;2022-11-06T12:41:40;19.77;;;11.43;;
61108;SDS011;46995;55.740;37.402;2022-11-06T12:44:10;19.40;;;11.15;;
61108;SDS011;46995;55.740;37.402;2022-11-06T12:55:33;21.73;;;11.20;;
61108;SDS011;46995;55.740;37.402;2022-11-06T12:58:18;20.55;;;11.25;;
61108;SDS011;46995;55.740;37.402;2022-11-06T13:01:31;21.55;;;12.38;;
61108;SDS011;46995;55.740;37.402;2022-11-06T13:18:28;18.50;;;10.13;;
61108;SDS011;46995;55.740;37.402;2022-11-06T13:21:09;17.50;;;9.75;;
61108;SDS011;46995;55.740;37.402;2022-11-06T13:23:53;17.33;;;10.13;;
61108;SDS011;46995;55.740;37.402;2022-11-06T13:29:09;18.15;;;10.32;;
61108;SDS011;46995;55.740;37.402;2022-11-06T13:31:40;18.23;;;10.30;;
61108;SDS011;46995;55.740;37.402;2022-11-06T13:34:09;18.05;;;9.93;;
61108;SDS011;46995;55.740;37.402;2022-11-06T13:36:43;20.75;;;9.93;;
61108;SDS011;46995;55.740;37.402;2022-11-06T13:41:36;16.95;;;10.80;;
61108;SDS011;46995;55.740;37.402;2022-11-06T13:44:02;23.63;;;10.57;;
61108;SDS011;46995;55.740;37.402;2022-11-06T13:50:05;17.30;;;9.15;;
61108;SDS011;46995;55.740;37.402;2022-11-06T13:52:53;15.40;;;8.80;;
61108;SDS011;46995;55.740;37.402;2022-11-06T14:07:12;13.48;;;8.40;;
61108;SDS011;46995;55.740;37.402;2022-11-06T14:09:40;15.98;;;8.88;;
61108;SDS011;46995;55.740;37.402;2022-11-06T14:12:19;13.30;;;8.15;;
61108;SDS011;46995;55.740;37.402;2022-11-06T14:14:50;12.02;;;8.25;;
61108;SDS011;46995;55.740;37.402;2022-11-06T14:17:36;18.13;;;9.60;;
61108;SDS011;46995;55.740;37.402;2022-11-06T14:22:56;12.15;;;7.93;;
61108;SDS011;46995;55.740;37.402;2022-11-06T14:25:59;12.32;;;6.93;;
61108;SDS011;46995;55.740;37.402;2022-11-06T14:28:36;14.98;;;7.57;;
61108;SDS011;46995;55.740;37.402;2022-11-06T14:31:07;12.18;;;7.60;;
61108;SDS011;46995;55.740;37.402;2022-11-06T14:36:27;13.13;;;7.78;;
61108;SDS011;46995;55.740;37.402;2022-11-06T14:39:01;14.00;;;7.53;;
61108;SDS011;46995;55.740;37.402;2022-11-06T14:44:04;11.77;;;7.00;;
61108;SDS011;46995;55.740;37.402;2022-11-06T14:46:38;11.57;;;6.40;;
61108;SDS011;46995;55.740;37.402;2022-11-06T14:49:35;9.65;;;6.57;;
61108;SDS011;46995;55.740;37.402;2022-11-06T14:52:12;14.30;;;7.18;;
61108;SDS011;46995;55.740;37.402;2022-11-06T14:54:41;13.00;;;7.68;;
61108;SDS011;46995;55.740;37.402;2022-11-06T14:57:16;13.40;;;7.30;;
61108;SDS011;46995;55.740;37.402;2022-11-06T14:59:58;13.57;;;7.07;;
61108;SDS011;46995;55.740;37.402;2022-11-06T15:02:26;11.20;;;6.40;;
61108;SDS011;46995;55.740;37.402;2022-11-06T15:07:33;9.32;;;6.20;;
61108;SDS011;46995;55.740;37.402;2022-11-06T15:10:02;12.10;;;7.05;;
61108;SDS011;46995;55.740;37.402;2022-11-06T15:15:28;12.90;;;6.60;;
61108;SDS011;46995;55.740;37.402;2022-11-06T15:17:55;10.45;;;7.03;;
61108;SDS011;46995;55.740;37.402;2022-11-06T15:20:24;12.32;;;7.80;;
61108;SDS011;46995;55.740;37.402;2022-11-06T15:25:58;11.35;;;7.40;;
61108;SDS011;46995;55.740;37.402;2022-11-06T15:28:31;13.13;;;7.55;;
61108;SDS011;46995;55.740;37.402;2022-11-06T15:31:06;11.97;;;7.17;;
61108;SDS011;46995;55.740;37.402;2022-11-06T15:36:12;16.08;;;7.05;;
61108;SDS011;46995;55.740;37.402;2022-11-06T15:38:41;11.68;;;7.47;;
61108;SDS011;46995;55.740;37.402;2022-11-06T15:41:12;15.88;;;8.45;;
61108;SDS011;46995;55.740;37.402;2022-11-06T15:43:45;13.85;;;7.95;;
61108;SDS011;46995;55.740;37.402;2022-11-06T15:48:46;16.05;;;8.57;;
61108;SDS011;46995;55.740;37.402;2022-11-06T15:51:30;11.52;;;8.10;;
61108;SDS011;46995;55.740;37.402;2022-11-06T15:53:56;14.93;;;8.30;;
61108;SDS011;46995;55.740;37.402;2022-11-06T15:56:23;13.68;;;8.70;;
61108;SDS011;46995;55.740;37.402;2022-11-06T15:59:05;19.95;;;8.88;;
61108;SDS011;46995;55.740;37.402;2022-11-06T16:01:34;23.42;;;13.00;;
61108;SDS011;46995;55.740;37.402;2022-11-06T16:04:02;18.92;;;10.35;;
61108;SDS011;46995;55.740;37.402;2022-11-06T16:06:32;17.25;;;10.13;;
61108;SDS011;46995;55.740;37.402;2022-11-06T16:08:58;16.42;;;10.20;;
61108;SDS011;46995;55.740;37.402;2022-11-06T16:11:24;18.13;;;10.60;;
61108;SDS011;46995;55.740;37.402;2022-11-06T16:18:55;17.13;;;9.38;;
61108;SDS011;46995;55.740;37.402;2022-11-06T16:21:29;15.02;;;9.52;;
61108;SDS011;46995;55.740;37.402;2022-11-06T16:23:59;17.90;;;10.63;;
61108;SDS011;46995;55.740;37.402;2022-11-06T16:28:59;22.70;;;10.50;;
61108;SDS011;46995;55.740;37.402;2022-11-06T16:31:29;19.60;;;10.20;;
61108;SDS011;46995;55.740;37.402;2022-11-06T16:33:58;18.42;;;9.65;;
61108;SDS011;46995;55.740;37.402;2022-11-06T16:36:25;16.30;;;10.10;;
61108;SDS011;46995;55.740;37.402;2022-11-06T16:38:54;14.90;;;9.45;;
61108;SDS011;46995;55.740;37.402;2022-11-06T16:41:58;17.08;;;9.95;;
61108;SDS011;46995;55.740;37.402;2022-11-06T16:47:14;18.25;;;10.32;;
61108;SDS011;46995;55.740;37.402;2022-11-06T16:49:45;20.42;;;10.60;;
61108;SDS011;46995;55.740;37.402;2022-11-06T16:54:47;18.58;;;10.25;;
61108;SDS011;46995;55.740;37.402;2022-11-06T16:57:15;20.02;;;10.80;;
61108;SDS011;46995;55.740;37.402;2022-11-06T17:02:46;18.83;;;9.68;;
61108;SDS011;46995;55.740;37.402;2022-11-06T17:05:21;17.85;;;10.30;;
61108;SDS011;46995;55.740;37.402;2022-11-06T17:08:03;16.80;;;9.32;;
61108;SDS011;46995;55.740;37.402;2022-11-06T17:13:10;17.77;;;10.23;;
61108;SDS011;46995;55.740;37.402;2022-11-06T17:15:43;17.88;;;10.20;;
61108;SDS011;46995;55.740;37.402;2022-11-06T17:18:24;17.20;;;10.13;;
61108;SDS011;46995;55.740;37.402;2022-11-06T17:20:53;16.63;;;10.32;;
61108;SDS011;46995;55.740;37.402;2022-11-06T17:23:23;20.25;;;9.88;;
61108;SDS011;46995;55.740;37.402;2022-11-06T17:25:52;19.15;;;10.13;;
61108;SDS011;46995;55.740;37.402;2022-11-06T17:28:21;17.30;;;9.60;;